Time;durP1;ratioP1;P1;durP2;ratioP2;P2;SDS_P1;SDS_P2;PMS_P1;PMS_P2;Temp;Humidity;BMP_temperature;BMP_pressure;BME280_temperature;BME280_humidity;BME280_pressure;Samples;Min_cycle;Max_cycle;Signal;HPM_P1;HPM_P2
2022/08/27 00:01:40;;;;;;;5.20;3.95;;;19.70;99.90;19.90;100147.00;;;;4892137;28;92456;-64
2022/08/27 00:04:05;;;;;;;7.40;5.57;;;19.80;99.90;19.90;100146.00;;;;4893908;28;92886;-64
2022/08/27 00:06:31;;;;;;;5.63;5.13;;;19.70;99.90;19.90;100145.00;;;;4891868;28;124334;-64
2022/08/27 00:08:57;;;;;;;5.13;3.95;;;19.70;99.90;19.90;100134.00;;;;4893197;28;93645;-64
2022/08/27 00:11:24;;;;;;;5.68;3.42;;;19.70;99.90;19.90;100126.00;;;;4892426;28;111200;-63
2022/08/27 00:13:50;;;;;;;8.70;4.55;;;19.70;99.90;19.90;100121.00;;;;4892646;28;92743;-63
2022/08/27 00:16:16;;;;;;;5.63;4.65;;;19.80;99.90;19.90;100121.00;;;;4892888;28;121936;-64
2022/08/27 00:18:44;;;;;;;4.50;4.03;;;19.80;99.90;19.90;100121.00;;;;4892314;28;123518;-64
2022/08/27 00:21:10;;;;;;;5.28;3.83;;;19.70;99.90;19.90;100123.00;;;;4893146;28;92782;-63
2022/08/27 00:23:36;;;;;;;5.25;4.28;;;19.80;99.90;19.90;100120.00;;;;4893472;28;108254;-64
2022/08/27 00:26:05;;;;;;;4.47;3.88;;;19.80;99.90;19.90;100124.00;;;;4896675;28;92977;-64
2022/08/27 00:28:31;;;;;;;5.38;3.92;;;19.80;99.90;19.90;100132.00;;;;4897710;28;92985;-63
2022/08/27 00:30:58;;;;;;;6.40;4.53;;;19.70;99.90;19.90;100141.00;;;;4895206;28;103032;-63
2022/08/27 00:33:24;;;;;;;7.70;4.55;;;19.70;99.90;19.90;100135.00;;;;4897011;28;93813;-62
2022/08/27 00:35:50;;;;;;;6.97;3.75;;;19.70;99.90;19.90;100142.00;;;;4896937;28;94073;-65
2022/08/27 00:38:18;;;;;;;4.30;3.88;;;19.70;99.90;19.80;100145.00;;;;4898424;28;92705;-64
2022/08/27 00:40:44;;;;;;;9.32;4.15;;;19.70;99.90;19.80;100147.00;;;;4893004;28;101891;-64
2022/08/27 00:43:10;;;;;;;7.57;4.53;;;19.70;99.90;19.80;100157.00;;;;4896811;28;93070;-64
2022/08/27 00:45:42;;;;;;;8.05;4.72;;;19.70;99.90;19.80;100155.00;;;;4896542;28;97728;-64
2022/08/27 00:48:13;;;;;;;7.13;4.47;;;19.70;99.90;19.80;100153.00;;;;4890036;28;93971;-64
2022/08/27 00:50:45;;;;;;;5.25;3.60;;;19.60;99.90;19.80;100161.00;;;;4896873;28;92274;-65
2022/08/27 00:53:16;;;;;;;6.15;4.93;;;19.60;99.90;19.70;100160.00;;;;4878942;28;92827;-65
2022/08/27 00:55:48;;;;;;;6.93;4.35;;;19.60;99.90;19.70;100154.00;;;;4877193;28;93070;-64
2022/08/27 00:58:21;;;;;;;6.80;4.22;;;19.60;99.90;19.70;100156.00;;;;4908866;28;112296;-63
2022/08/27 01:00:48;;;;;;;13.48;4.97;;;19.60;99.90;19.70;100146.00;;;;4895220;28;93035;-64
2022/08/27 01:03:14;;;;;;;8.70;4.30;;;19.60;99.90;19.70;100154.00;;;;4895053;28;108468;-63
2022/08/27 01:05:43;;;;;;;6.20;4.15;;;19.50;99.90;19.60;100152.00;;;;4895869;28;122510;-63
2022/08/27 01:08:14;;;;;;;7.18;5.07;;;19.50;99.90;19.60;100151.00;;;;4896888;28;93067;-62
2022/08/27 01:10:41;;;;;;;7.00;5.18;;;19.50;99.90;19.60;100148.00;;;;4894598;28;93034;-63
2022/08/27 01:13:13;;;;;;;10.27;5.60;;;19.50;99.90;19.60;100147.00;;;;4894536;28;110103;-63
2022/08/27 01:15:40;;;;;;;9.00;5.20;;;19.40;99.90;19.60;100147.00;;;;4895131;28;113922;-64
2022/08/27 01:18:07;;;;;;;8.05;4.88;;;19.30;99.90;19.50;100150.00;;;;4877403;28;95601;-63
2022/08/27 01:21:04;;;;;;;4.95;4.45;;;19.40;99.90;19.50;100153.00;;;;4894567;28;101546;-64
2022/08/27 01:24:07;;;;;;;6.13;5.55;;;19.40;99.90;19.50;100147.00;;;;4876706;28;94402;-63
2022/08/27 01:26:33;;;;;;;6.32;5.50;;;19.40;99.90;19.50;100153.00;;;;4875001;28;115668;-63
2022/08/27 01:28:59;;;;;;;6.35;4.82;;;19.40;99.90;19.50;100150.00;;;;4895570;28;92958;-64
2022/08/27 01:31:26;;;;;;;5.85;5.00;;;19.40;99.90;19.50;100148.00;;;;4895558;28;92860;-63
2022/08/27 01:34:00;;;;;;;5.90;4.47;;;19.30;99.90;19.50;100148.00;;;;4895889;28;92810;-63
2022/08/27 01:36:26;;;;;;;6.60;4.65;;;19.30;99.90;19.50;100153.00;;;;4895159;28;93183;-64
2022/08/27 01:38:51;;;;;;;5.57;4.57;;;19.30;99.90;19.50;100147.00;;;;4894265;28;93655;-63
2022/08/27 01:41:18;;;;;;;6.18;4.80;;;19.40;99.90;19.50;100148.00;;;;4895743;28;92076;-63
2022/08/27 01:43:43;;;;;;;7.75;4.95;;;19.30;99.90;19.50;100152.00;;;;4898686;28;92895;-63
2022/08/27 01:46:09;;;;;;;9.95;5.82;;;19.30;99.90;19.50;100147.00;;;;4893833;28;121796;-63
2022/08/27 01:48:35;;;;;;;7.05;3.88;;;19.30;99.90;19.50;100142.00;;;;4891910;28;123225;-63
2022/08/27 01:51:00;;;;;;;7.55;5.22;;;19.30;99.90;19.50;100136.00;;;;4896555;28;93005;-63
2022/08/27 01:53:26;;;;;;;7.20;4.75;;;19.30;99.90;19.50;100131.00;;;;4896903;28;92743;-63
2022/08/27 01:55:54;;;;;;;5.25;4.20;;;19.30;99.90;19.50;100130.00;;;;4896132;28;93236;-63
2022/08/27 01:58:24;;;;;;;7.10;5.53;;;19.30;99.90;19.50;100133.00;;;;4895324;28;92884;-64
2022/08/27 02:00:54;;;;;;;8.65;5.32;;;19.30;99.90;19.50;100119.00;;;;4893060;28;92793;-64
2022/08/27 02:03:19;;;;;;;5.55;5.03;;;19.30;99.90;19.40;100128.00;;;;4878424;28;97282;-63
2022/08/27 02:05:47;;;;;;;6.85;5.35;;;19.30;99.90;19.40;100117.00;;;;4894927;28;110509;-65
2022/08/27 02:08:16;;;;;;;11.27;6.10;;;19.30;99.90;19.40;100120.00;;;;4895488;28;115341;-63
2022/08/27 02:10:46;;;;;;;5.65;4.93;;;19.30;99.90;19.40;100117.00;;;;4895065;28;92738;-63
2022/08/27 02:13:13;;;;;;;6.70;5.60;;;19.30;99.90;19.40;100123.00;;;;4895182;28;93787;-64
2022/08/27 02:15:41;;;;;;;7.15;5.40;;;19.30;99.90;19.40;100125.00;;;;4894411;28;93340;-64
2022/08/27 02:18:08;;;;;;;8.60;6.68;;;19.20;99.90;19.30;100122.00;;;;4894102;28;93882;-63
2022/08/27 02:20:35;;;;;;;6.55;5.20;;;19.20;99.90;19.30;100117.00;;;;4894300;28;102792;-63
2022/08/27 02:23:03;;;;;;;7.30;5.40;;;19.20;99.90;19.30;100114.00;;;;4894472;28;101910;-62
2022/08/27 02:25:29;;;;;;;7.18;5.45;;;19.30;99.90;19.30;100105.00;;;;4891597;28;93185;-64
2022/08/27 02:27:58;;;;;;;7.97;5.40;;;19.20;99.90;19.30;100105.00;;;;4909956;28;93055;-63
2022/08/27 02:30:26;;;;;;;9.60;5.70;;;19.20;99.90;19.30;100118.00;;;;4892108;28;92273;-63
2022/08/27 02:32:53;;;;;;;7.72;5.25;;;19.10;99.90;19.30;100106.00;;;;4894167;28;92788;-63
2022/08/27 02:35:22;;;;;;;12.65;5.45;;;19.10;99.90;19.30;100107.00;;;;4893704;28;103782;-63
2022/08/27 02:37:48;;;;;;;7.70;6.80;;;19.10;99.90;19.20;100109.00;;;;4891487;28;93942;-63
2022/08/27 02:40:17;;;;;;;8.63;6.07;;;19.10;99.90;19.20;100104.00;;;;4894944;28;92859;-64
2022/08/27 02:42:44;;;;;;;8.65;5.30;;;19.10;99.90;19.20;100099.00;;;;4894878;28;93278;-63
2022/08/27 02:45:11;;;;;;;7.95;5.55;;;19.10;99.90;19.20;100092.00;;;;4892880;28;93958;-63
2022/08/27 02:47:37;;;;;;;8.20;6.45;;;19.10;99.90;19.20;100096.00;;;;4896358;28;93126;-64
2022/08/27 02:50:04;;;;;;;7.53;5.75;;;19.00;99.90;19.10;100100.00;;;;4893809;28;102303;-63
2022/08/27 02:52:30;;;;;;;9.07;6.07;;;19.00;99.90;19.10;100104.00;;;;4893820;28;92795;-63
2022/08/27 02:54:56;;;;;;;7.13;6.03;;;19.00;99.90;19.10;100095.00;;;;4890601;28;92268;-63
2022/08/27 02:57:22;;;;;;;7.53;5.97;;;19.00;99.90;19.00;100094.00;;;;4893834;28;93153;-63
2022/08/27 02:59:50;;;;;;;6.53;5.57;;;18.90;99.90;19.00;100085.00;;;;4893915;28;109109;-65
2022/08/27 03:02:17;;;;;;;7.78;5.72;;;18.90;99.90;19.00;100088.00;;;;4894719;28;95897;-65
2022/08/27 03:04:43;;;;;;;7.88;5.95;;;18.80;99.90;18.90;100090.00;;;;4892905;28;94414;-65
2022/08/27 03:07:10;;;;;;;10.98;6.07;;;18.80;99.90;18.90;100097.00;;;;4894007;28;93508;-63
2022/08/27 03:09:35;;;;;;;9.48;7.10;;;18.80;99.90;18.90;100096.00;;;;4876521;28;92969;-65
2022/08/27 03:12:03;;;;;;;10.43;6.15;;;18.80;99.90;18.90;100091.00;;;;4894199;28;92917;-65
2022/08/27 03:14:30;;;;;;;8.40;6.32;;;18.70;99.90;18.90;100096.00;;;;4893754;28;100671;-65
2022/08/27 03:18:16;;;;;;;8.20;5.88;;;18.70;99.90;18.90;100101.00;;;;4893657;28;93786;-65
2022/08/27 03:19:42;;;;;;;7.15;5.93;;;18.80;99.90;18.90;100104.00;;;;4894447;28;92348;-64
2022/08/27 03:22:08;;;;;;;7.88;6.50;;;18.60;99.90;18.90;100100.00;;;;4894965;28;93349;-63
2022/08/27 03:24:34;;;;;;;9.15;6.18;;;18.70;99.90;18.90;100103.00;;;;4892811;28;122873;-63
2022/08/27 03:27:00;;;;;;;7.90;6.60;;;18.80;99.90;18.90;100100.00;;;;4892931;28;122339;-65
2022/08/27 03:29:27;;;;;;;9.07;6.22;;;18.80;99.90;18.90;100106.00;;;;4894174;28;92846;-65
2022/08/27 03:31:53;;;;;;;8.93;6.43;;;18.80;99.90;18.90;100110.00;;;;4893107;28;92703;-64
2022/08/27 03:34:19;;;;;;;7.78;6.65;;;18.80;99.90;18.90;100108.00;;;;4894019;28;93214;-64
2022/08/27 03:36:45;;;;;;;9.00;6.78;;;18.80;99.90;18.90;100100.00;;;;4893463;28;94183;-65
2022/08/27 03:39:11;;;;;;;6.32;5.72;;;18.80;99.90;18.90;100108.00;;;;4893540;28;110363;-64
2022/08/27 03:41:36;;;;;;;9.60;6.88;;;18.80;99.90;18.90;100104.00;;;;4892899;28;92942;-64
2022/08/27 03:44:02;;;;;;;7.80;6.65;;;18.80;99.90;18.90;100116.00;;;;4891287;28;97448;-65
2022/08/27 03:46:29;;;;;;;7.90;6.40;;;18.80;99.90;18.90;100117.00;;;;4892418;28;113295;-64
2022/08/27 03:48:55;;;;;;;8.70;6.43;;;18.80;99.90;18.90;100120.00;;;;4893196;28;92951;-64
2022/08/27 03:51:22;;;;;;;9.30;7.13;;;18.80;99.90;18.90;100121.00;;;;4892628;28;93742;-65
2022/08/27 03:53:48;;;;;;;9.70;6.60;;;18.80;99.90;19.00;100122.00;;;;4893286;28;94106;-65
2022/08/27 03:56:14;;;;;;;7.80;7.03;;;18.80;99.90;19.00;100120.00;;;;4892295;28;105936;-65
2022/08/27 03:58:40;;;;;;;8.98;8.00;;;18.80;99.90;19.00;100121.00;;;;4892682;28;92901;-65
2022/08/27 04:01:06;;;;;;;11.70;8.95;;;18.90;99.90;19.10;100120.00;;;;4893643;28;93139;-66
2022/08/27 04:03:34;;;;;;;10.85;8.52;;;18.90;99.90;19.10;100116.00;;;;4890227;28;111488;-65
2022/08/27 04:06:01;;;;;;;13.27;7.82;;;18.90;99.90;19.10;100125.00;;;;4892703;28;93869;-65
2022/08/27 04:08:27;;;;;;;9.70;7.43;;;19.00;99.90;19.10;100123.00;;;;4892497;28;92206;-66
2022/08/27 04:10:53;;;;;;;10.98;7.53;;;19.00;99.90;19.20;100130.00;;;;4893435;28;92996;-65
2022/08/27 04:13:20;;;;;;;7.88;6.13;;;19.00;99.90;19.20;100123.00;;;;4893942;28;94062;-65
2022/08/27 04:15:48;;;;;;;9.63;7.32;;;19.10;99.90;19.20;100130.00;;;;4892908;28;100687;-65
2022/08/27 04:18:15;;;;;;;7.43;6.38;;;19.10;99.90;19.30;100120.00;;;;4893522;28;92603;-65
2022/08/27 04:20:46;;;;;;;13.45;7.75;;;19.10;99.90;19.30;100121.00;;;;4893734;28;92805;-66
2022/08/27 04:23:12;;;;;;;11.95;8.30;;;19.10;99.90;19.30;100115.00;;;;4895527;28;93002;-65
2022/08/27 04:25:41;;;;;;;11.48;9.50;;;19.20;99.90;19.30;100123.00;;;;4891897;28;93882;-65
2022/08/27 04:28:07;;;;;;;8.63;6.97;;;19.20;99.90;19.30;100125.00;;;;4892375;28;92842;-65
2022/08/27 04:30:37;;;;;;;7.93;6.93;;;19.20;99.90;19.40;100115.00;;;;4892954;28;93101;-65
2022/08/27 04:33:03;;;;;;;10.93;7.68;;;19.20;99.90;19.40;100113.00;;;;4892516;28;92680;-65
2022/08/27 04:35:29;;;;;;;7.82;7.03;;;19.20;99.90;19.40;100124.00;;;;4892215;28;121436;-65
2022/08/27 04:37:55;;;;;;;11.40;7.90;;;19.20;99.90;19.40;100123.00;;;;4893884;28;93047;-65
2022/08/27 04:40:20;;;;;;;9.65;7.20;;;19.30;99.90;19.50;100112.00;;;;4893258;28;93959;-65
2022/08/27 04:42:46;;;;;;;12.43;8.30;;;19.30;99.90;19.50;100120.00;;;;4887294;28;120610;-65
2022/08/27 04:45:12;;;;;;;11.80;8.45;;;19.30;99.90;19.50;100127.00;;;;4888157;28;122623;-65
2022/08/27 04:47:37;;;;;;;10.70;7.53;;;19.30;99.90;19.50;100128.00;;;;4889277;28;111598;-65
2022/08/27 04:50:04;;;;;;;11.73;8.48;;;19.30;99.90;19.60;100128.00;;;;4888119;28;93438;-64
2022/08/27 04:52:29;;;;;;;11.15;8.60;;;19.40;99.90;19.60;100124.00;;;;4887134;28;94071;-66
2022/08/27 04:54:55;;;;;;;14.27;8.60;;;19.40;99.90;19.60;100119.00;;;;4887343;28;122026;-64
2022/08/27 04:57:21;;;;;;;13.30;7.72;;;19.40;99.90;19.60;100125.00;;;;4888867;28;92151;-63
2022/08/27 04:59:47;;;;;;;21.02;8.90;;;19.40;99.90;19.60;100130.00;;;;4888355;28;92976;-64
2022/08/27 05:02:12;;;;;;;12.68;9.82;;;19.40;99.90;19.60;100134.00;;;;4888240;28;93303;-63
2022/08/27 05:04:39;;;;;;;18.48;8.40;;;19.50;99.90;19.70;100136.00;;;;4881819;28;122218;-63
2022/08/27 05:07:07;;;;;;;19.30;9.18;;;19.50;99.90;19.70;100141.00;;;;4886728;28;110568;-63
2022/08/27 05:09:33;;;;;;;16.13;9.77;;;19.50;99.90;19.70;100133.00;;;;4886923;28;93186;-64
2022/08/27 05:12:00;;;;;;;14.57;8.57;;;19.50;99.90;19.70;100126.00;;;;4891280;28;93879;-63
2022/08/27 05:14:28;;;;;;;15.05;9.57;;;19.50;99.90;19.70;100130.00;;;;4891567;28;92951;-64
2022/08/27 05:16:56;;;;;;;13.60;10.02;;;19.60;99.90;19.80;100129.00;;;;4891667;28;92899;-64
2022/08/27 05:19:22;;;;;;;11.82;9.10;;;19.60;99.90;19.80;100128.00;;;;4890733;28;92816;-64
2022/08/27 05:21:51;;;;;;;11.63;8.75;;;19.70;99.90;19.90;100128.00;;;;4890503;28;109305;-65
2022/08/27 05:24:18;;;;;;;11.38;8.43;;;19.70;99.90;19.90;100127.00;;;;4887563;28;93200;-64
2022/08/27 05:26:44;;;;;;;8.98;8.00;;;19.70;99.90;20.00;100124.00;;;;4889792;28;109620;-64
2022/08/27 05:29:10;;;;;;;9.45;7.43;;;19.80;99.90;20.10;100117.00;;;;4891095;28;94102;-65
2022/08/27 05:31:37;;;;;;;12.35;8.15;;;19.90;99.90;20.10;100118.00;;;;4890713;28;93952;-64
2022/08/27 05:34:04;;;;;;;11.73;8.30;;;19.90;99.90;20.20;100116.00;;;;4890897;28;93372;-64
2022/08/27 05:36:34;;;;;;;8.93;7.88;;;20.00;99.90;20.20;100119.00;;;;4890819;28;92865;-64
2022/08/27 05:39:02;;;;;;;13.50;7.00;;;20.00;99.90;20.30;100118.00;;;;4891911;28;93007;-64
2022/08/27 05:41:31;;;;;;;10.48;7.80;;;20.10;99.90;20.40;100112.00;;;;4887785;28;94462;-64
2022/08/27 05:44:01;;;;;;;9.05;7.35;;;20.20;99.90;20.40;100112.00;;;;4890139;28;93641;-64
2022/08/27 05:46:28;;;;;;;10.63;7.80;;;20.20;99.90;20.50;100116.00;;;;4891506;28;92177;-64
2022/08/27 05:48:57;;;;;;;11.00;7.85;;;20.30;99.90;20.60;100118.00;;;;4889019;28;93279;-65
2022/08/27 05:51:35;;;;;;;9.85;7.35;;;20.40;99.90;20.70;100124.00;;;;4872804;28;93551;-64
2022/08/27 05:54:13;;;;;;;8.77;6.95;;;20.40;99.90;20.70;100121.00;;;;4889915;28;93801;-64
2022/08/27 05:56:40;;;;;;;8.60;6.88;;;20.50;99.90;20.80;100122.00;;;;4889785;28;93115;-64
2022/08/27 06:01:53;;;;;;;9.88;6.50;;;20.60;99.90;20.90;100126.00;;;;4889809;28;92938;-65
2022/08/27 06:04:23;;;;;;;8.60;5.72;;;20.70;99.90;20.90;100129.00;;;;4890773;28;93592;-64
2022/08/27 06:06:49;;;;;;;5.63;4.97;;;20.70;99.90;20.90;100143.00;;;;4891580;28;92986;-63
2022/08/27 06:09:23;;;;;;;8.40;6.32;;;20.70;99.90;21.00;100142.00;;;;4889752;28;108516;-63
2022/08/27 06:11:49;;;;;;;6.75;5.15;;;20.90;99.90;21.00;100146.00;;;;4886403;28;92487;-63
2022/08/27 06:14:15;;;;;;;9.10;5.85;;;20.80;99.90;21.10;100145.00;;;;4887841;28;121468;-63
2022/08/27 06:16:41;;;;;;;7.90;5.50;;;20.80;99.90;21.10;100146.00;;;;4888992;28;109437;-62
2022/08/27 06:19:10;;;;;;;7.45;5.07;;;20.90;99.90;21.10;100160.00;;;;4890802;28;94036;-62
2022/08/27 06:21:36;;;;;;;5.38;4.65;;;21.00;99.90;21.10;100158.00;;;;4888565;28;94398;-63
2022/08/27 06:24:02;;;;;;;7.07;4.75;;;20.90;99.90;21.10;100158.00;;;;4889723;28;105742;-62
2022/08/27 06:26:28;;;;;;;7.90;4.97;;;21.00;99.90;21.20;100154.00;;;;4890220;28;93400;-63
2022/08/27 06:28:54;;;;;;;6.85;5.22;;;20.90;99.90;21.20;100159.00;;;;4889980;28;109161;-62
2022/08/27 06:31:24;;;;;;;8.02;5.07;;;21.00;99.90;21.20;100157.00;;;;4889661;28;101653;-63
2022/08/27 06:33:52;;;;;;;8.90;6.13;;;21.00;99.90;21.20;100162.00;;;;4890758;28;93067;-62
2022/08/27 06:36:24;;;;;;;7.07;4.90;;;21.00;99.90;21.20;100166.00;;;;4891004;28;92109;-62
2022/08/27 06:38:50;;;;;;;10.77;5.40;;;21.00;99.90;21.20;100164.00;;;;4890024;28;101163;-62
2022/08/27 06:41:21;;;;;;;6.97;4.72;;;21.00;99.90;21.20;100162.00;;;;4889199;28;94265;-63
2022/08/27 06:43:46;;;;;;;9.98;6.05;;;21.00;99.90;21.20;100164.00;;;;4889412;28;93509;-63
2022/08/27 06:46:17;;;;;;;5.82;4.93;;;21.00;99.90;21.20;100163.00;;;;4889730;28;92818;-62
2022/08/27 06:48:46;;;;;;;10.15;6.25;;;21.00;99.90;21.20;100166.00;;;;4890475;28;92991;-62
2022/08/27 06:51:23;;;;;;;7.03;5.30;;;21.00;99.90;21.10;100165.00;;;;4889567;28;94270;-62
2022/08/27 06:53:49;;;;;;;7.55;5.63;;;21.00;99.90;21.20;100169.00;;;;4890242;28;94157;-62
2022/08/27 06:56:16;;;;;;;8.57;5.28;;;21.00;99.90;21.20;100173.00;;;;4889698;28;104007;-62
2022/08/27 06:58:42;;;;;;;8.70;5.60;;;21.00;99.90;21.20;100171.00;;;;4890407;28;92933;-62
2022/08/27 07:01:26;;;;;;;8.70;5.32;;;21.00;99.90;21.20;100173.00;;;;4889284;28;92403;-62
2022/08/27 07:03:58;;;;;;;6.80;4.88;;;21.10;99.90;21.30;100172.00;;;;4887467;28;93327;-62
2022/08/27 07:06:26;;;;;;;7.30;5.38;;;21.20;99.90;21.30;100169.00;;;;4890116;28;92877;-61
2022/08/27 07:08:52;;;;;;;17.95;6.18;;;21.10;99.90;21.40;100169.00;;;;4890433;28;93905;-61
2022/08/27 07:11:18;;;;;;;6.75;5.15;;;21.20;99.90;21.40;100175.00;;;;4887604;28;123328;-61
2022/08/27 07:13:46;;;;;;;7.95;5.30;;;21.20;99.90;21.40;100173.00;;;;4888561;28;121910;-60
2022/08/27 07:16:17;;;;;;;8.68;4.85;;;21.20;99.90;21.40;100174.00;;;;4889131;28;92914;-58
2022/08/27 07:18:43;;;;;;;7.40;5.13;;;21.20;99.90;21.40;100169.00;;;;4888213;28;93028;-60
2022/08/27 07:21:09;;;;;;;7.60;5.35;;;21.30;99.90;21.50;100171.00;;;;4889467;28;93173;-61
2022/08/27 07:23:36;;;;;;;7.90;6.03;;;21.30;99.90;21.50;100172.00;;;;4888324;28;114964;-61
2022/08/27 07:26:10;;;;;;;8.63;5.28;;;21.30;99.90;21.50;100169.00;;;;4888837;28;92140;-62
2022/08/27 07:28:38;;;;;;;7.35;4.95;;;21.30;99.90;21.40;100166.00;;;;4890610;28;92938;-62
2022/08/27 07:31:09;;;;;;;9.50;6.78;;;21.30;99.90;21.40;100179.00;;;;4890029;28;93668;-62
2022/08/27 07:33:37;;;;;;;6.03;4.78;;;21.30;99.90;21.40;100176.00;;;;4889549;28;114417;-61
2022/08/27 07:36:05;;;;;;;5.20;4.72;;;21.20;99.90;21.40;100167.00;;;;4890445;28;93097;-61
2022/08/27 07:38:31;;;;;;;7.78;5.05;;;21.20;99.90;21.40;100168.00;;;;4889808;28;92988;-61
2022/08/27 07:40:57;;;;;;;8.45;5.40;;;21.20;99.90;21.40;100168.00;;;;4889489;28;113847;-61
2022/08/27 07:46:07;;;;;;;8.57;4.72;;;21.20;99.90;21.40;100176.00;;;;4892039;28;93445;-62
2022/08/27 07:48:33;;;;;;;5.18;4.07;;;21.20;99.90;21.40;100169.00;;;;4889230;28;93390;-61
2022/08/27 07:51:04;;;;;;;5.90;5.32;;;21.20;99.90;21.40;100169.00;;;;4888576;28;115451;-62
2022/08/27 07:53:31;;;;;;;7.40;4.95;;;21.20;99.90;21.40;100175.00;;;;4887365;28;93045;-61
2022/08/27 07:56:05;;;;;;;7.43;6.13;;;21.20;99.90;21.40;100175.00;;;;4887549;28;93020;-62
2022/08/27 07:58:31;;;;;;;5.15;4.75;;;21.20;99.90;21.40;100186.00;;;;4885651;28;101060;-62
2022/08/27 08:00:57;;;;;;;9.07;5.63;;;21.20;99.90;21.40;100187.00;;;;4884893;28;123770;-61
2022/08/27 08:03:23;;;;;;;7.85;4.03;;;21.20;99.90;21.40;100186.00;;;;4890893;28;92922;-62
2022/08/27 08:05:51;;;;;;;6.70;3.78;;;21.30;99.90;21.40;100183.00;;;;4889963;28;92859;-61
2022/08/27 08:08:18;;;;;;;6.25;4.88;;;21.20;99.90;21.40;100195.00;;;;4889834;28;93036;-64
2022/08/27 08:10:46;;;;;;;5.63;4.25;;;21.30;99.90;21.50;100190.00;;;;4890958;28;94634;-62
2022/08/27 08:13:13;;;;;;;7.13;4.82;;;21.30;99.90;21.50;100189.00;;;;4889266;28;93945;-62
2022/08/27 08:15:38;;;;;;;7.72;4.63;;;21.30;99.90;21.50;100187.00;;;;4890278;28;92321;-62
2022/08/27 08:18:04;;;;;;;6.63;5.22;;;21.30;99.90;21.50;100184.00;;;;4888422;28;108449;-63
2022/08/27 08:20:30;;;;;;;10.02;4.60;;;21.40;99.90;21.50;100194.00;;;;4887982;28;116801;-63
2022/08/27 08:22:56;;;;;;;8.70;4.45;;;21.30;99.90;21.60;100190.00;;;;4886563;28;123417;-63
2022/08/27 08:25:22;;;;;;;6.82;4.47;;;21.40;99.90;21.60;100189.00;;;;4886526;28;110966;-63
2022/08/27 08:27:48;;;;;;;7.57;4.78;;;21.40;99.90;21.60;100193.00;;;;4887764;28;93004;-63
2022/08/27 08:30:14;;;;;;;5.45;4.45;;;21.30;99.90;21.60;100180.00;;;;4887650;28;123769;-63
2022/08/27 08:32:42;;;;;;;4.80;3.97;;;21.40;99.90;21.60;100189.00;;;;4886655;28;93839;-63
2022/08/27 08:35:08;;;;;;;5.93;4.30;;;21.40;99.90;21.70;100198.00;;;;4887964;28;93216;-63
2022/08/27 08:37:35;;;;;;;7.20;4.88;;;21.50;99.90;21.70;100192.00;;;;4879114;28;93944;-63
2022/08/27 08:40:01;;;;;;;5.10;4.22;;;21.50;99.90;21.70;100192.00;;;;4887045;28;93490;-63
2022/08/27 08:42:36;;;;;;;6.55;4.70;;;21.50;99.90;21.80;100187.00;;;;4888799;28;92806;-63
2022/08/27 08:45:05;;;;;;;8.13;5.25;;;21.60;99.90;21.80;100191.00;;;;4889530;28;102560;-64
2022/08/27 08:47:43;;;;;;;5.60;4.25;;;21.60;99.90;21.90;100199.00;;;;4872609;28;94144;-63
2022/08/27 08:50:34;;;;;;;8.18;5.22;;;21.70;99.90;22.00;100204.00;;;;4890530;28;93098;-63
2022/08/27 08:53:09;;;;;;;8.57;5.05;;;21.80;99.90;22.10;100202.00;;;;4891001;28;93962;-63
2022/08/27 08:55:46;;;;;;;8.38;4.90;;;21.90;99.90;22.10;100205.00;;;;4890167;28;93034;-63
2022/08/27 08:58:33;;;;;;;5.72;4.30;;;21.90;99.90;22.20;100192.00;;;;4892400;28;92976;-62
2022/08/27 09:01:01;;;;;;;9.80;6.18;;;22.00;99.90;22.30;100195.00;;;;4889944;28;93773;-63
2022/08/27 09:03:28;;;;;;;7.65;5.65;;;22.10;99.90;22.40;100205.00;;;;4872990;28;113551;-63
2022/08/27 09:06:04;;;;;;;6.50;4.88;;;22.20;99.90;22.50;100195.00;;;;4892296;28;103078;-62
2022/08/27 09:08:41;;;;;;;6.05;5.00;;;22.30;99.90;22.60;100199.00;;;;4892330;28;93015;-63
2022/08/27 09:11:48;;;;;;;6.20;4.20;;;22.40;99.90;22.70;100202.00;;;;4887385;28;93791;-62
2022/08/27 09:14:22;;;;;;;7.38;4.13;;;22.50;99.90;22.80;100205.00;;;;4865020;28;93885;-62
2022/08/27 09:16:48;;;;;;;4.97;4.07;;;22.50;99.90;22.80;100204.00;;;;4900634;28;105762;-62
2022/08/27 09:19:13;;;;;;;4.80;4.10;;;22.60;99.90;22.80;100198.00;;;;4892193;28;107445;-62
2022/08/27 09:22:16;;;;;;;7.88;4.80;;;22.60;99.90;22.90;100204.00;;;;4890168;28;123748;-61
2022/08/27 09:25:12;;;;;;;9.95;4.45;;;22.60;99.90;22.90;100208.00;;;;4890827;28;93492;-62
2022/08/27 09:27:41;;;;;;;6.28;4.15;;;22.70;99.90;22.90;100198.00;;;;4904443;28;102454;-62
2022/08/27 09:30:38;;;;;;;5.45;4.07;;;22.70;99.90;23.00;100202.00;;;;4867340;28;93033;-61
2022/08/27 09:33:04;;;;;;;8.27;5.13;;;22.70;99.90;23.00;100198.00;;;;4888123;28;92663;-62
2022/08/27 09:35:43;;;;;;;6.38;4.85;;;22.80;99.90;23.10;100197.00;;;;4890927;28;97326;-62
2022/08/27 09:38:12;;;;;;;8.13;5.15;;;22.80;99.90;23.00;100203.00;;;;4890702;28;93141;-63
2022/08/27 09:40:47;;;;;;;6.30;4.80;;;22.80;99.90;23.00;100217.00;;;;4889125;28;94212;-62
2022/08/27 09:43:15;;;;;;;7.07;4.88;;;22.80;99.90;23.00;100210.00;;;;4889134;28;93494;-62
2022/08/27 09:45:58;;;;;;;7.80;5.03;;;22.80;99.90;23.00;100211.00;;;;4890851;28;122784;-61
2022/08/27 09:48:35;;;;;;;6.32;4.90;;;22.80;99.90;22.90;100211.00;;;;4891997;28;92704;-61
2022/08/27 09:51:07;;;;;;;5.78;5.15;;;22.70;99.90;22.90;100213.00;;;;4889183;28;92915;-62
2022/08/27 09:53:53;;;;;;;5.97;4.40;;;22.70;99.90;22.90;100217.00;;;;4889984;28;93534;-62
2022/08/27 09:56:33;;;;;;;8.02;5.55;;;22.70;99.90;22.90;100225.00;;;;4888126;28;94886;-62
2022/08/27 09:59:12;;;;;;;10.07;5.18;;;22.70;99.90;22.90;100210.00;;;;4887396;28;92359;-62
2022/08/27 10:02:13;;;;;;;7.03;4.35;;;22.70;99.90;23.00;100223.00;;;;4870266;28;93746;-63
2022/08/27 10:04:47;;;;;;;7.18;4.65;;;22.80;99.90;23.20;100217.00;;;;4889566;28;93707;-62
2022/08/27 10:07:18;;;;;;;5.15;4.25;;;22.90;99.90;23.30;100224.00;;;;4870644;28;94041;-62
2022/08/27 10:10:10;;;;;;;6.15;4.53;;;23.00;99.90;23.50;100217.00;;;;4890739;28;92621;-62
2022/08/27 10:13:00;;;;;;;5.75;4.03;;;23.20;99.90;23.60;100215.00;;;;4889364;28;93363;-62
2022/08/27 10:16:04;;;;;;;5.68;3.83;;;23.30;99.90;23.60;100212.00;;;;4867697;28;113697;-62
2022/08/27 10:19:00;;;;;;;4.53;3.90;;;23.30;99.90;23.80;100219.00;;;;4825424;28;93423;-62
2022/08/27 10:21:40;;;;;;;7.53;5.07;;;23.50;99.90;23.80;100213.00;;;;4889513;28;93253;-63
2022/08/27 10:24:29;;;;;;;7.22;4.70;;;23.60;99.90;24.00;100210.00;;;;4904967;28;93051;-62
2022/08/27 10:27:21;;;;;;;8.00;5.32;;;23.70;99.90;24.10;100209.00;;;;4886779;28;113312;-62
2022/08/27 10:30:18;;;;;;;5.15;4.47;;;23.80;99.90;24.20;100211.00;;;;4888266;28;115200;-62
2022/08/27 10:33:30;;;;;;;5.80;4.40;;;23.90;99.90;24.30;100214.00;;;;4888341;28;92892;-63
2022/08/27 10:36:25;;;;;;;8.35;5.07;;;24.00;99.90;24.40;100211.00;;;;4890708;28;94902;-63
2022/08/27 10:39:08;;;;;;;6.38;4.38;;;24.10;99.90;24.50;100221.00;;;;4904288;28;93188;-62
2022/08/27 10:41:42;;;;;;;9.07;4.78;;;24.20;99.90;24.50;100223.00;;;;4886166;28;114126;-62
2022/08/27 10:44:29;;;;;;;7.25;5.25;;;24.30;99.90;24.50;100220.00;;;;4889114;28;104655;-62
2022/08/27 10:47:48;;;;;;;6.95;5.03;;;24.30;99.90;24.30;100229.00;;;;4879145;28;92959;-63
2022/08/27 10:50:41;;;;;;;7.85;4.80;;;24.10;99.90;24.10;100224.00;;;;4889560;28;113331;-62
2022/08/27 10:53:42;;;;;;;6.70;5.45;;;24.00;99.90;24.10;100231.00;;;;4887890;28;93591;-63
2022/08/27 10:56:23;;;;;;;7.90;4.50;;;23.90;99.90;24.10;100223.00;;;;4879485;28;92779;-64
2022/08/27 10:59:28;;;;;;;6.78;3.45;;;23.90;99.90;24.10;100227.00;;;;4908276;28;92983;-61
2022/08/27 11:02:19;;;;;;;11.43;5.40;;;23.90;99.90;24.10;100233.00;;;;4892488;28;93202;-63
2022/08/27 11:04:52;;;;;;;5.65;4.18;;;23.90;99.90;24.10;100235.00;;;;4894675;28;93687;-63